Ghent (Roanoke), VA

1:20 PM EDT on July 24, 2017 (GMT -0400)
Raleigh Court - 1043ft. (Near Wasena ES) | | Change Station

Elev 1043 ft 37.26 °N, 79.97 °W | Updated 2 seconds ago

Clear
Clear
91.1 °F
Feels Like 95 °F
N
8.0
Wind Variable Wind from SSW
Gusts 13.0 mph

Today
High -- | Low -- °F
--% Chance of Precip.
Yesterday
High -- | Low -- °F
Precip. -- in
Pressure 29.91 in
Visibility 10.0 miles
Clouds Few 3900 ft
Heat Index 95 °F
Dew Point 68 °F
Humidity 47%
Rainfall 0.51 in
Snow Depth Not available.
6:18 AM 8:34 PM
New Moon, 2% visible
METAR KROA 241654Z 28007KT 270V340 10SM FEW039 31/18 A2995 RMK AO2 SLP127 T03060183
Pressure 29.91 in
Visibility 10.0 miles
Clouds Few 3900 ft
Heat Index 95 °F
Dew Point 68 °F
Humidity 47%
Rainfall 0.51 in
Snow Depth Not available.
6:18 AM 8:34 PM
New Moon, 2% visible
METAR KROA 241654Z 28007KT 270V340 10SM FEW039 31/18 A2995 RMK AO2 SLP127 T03060183

Get Severe Weather Alerts

Thanks for signing up!

Be on the lookout for a verification email in your inbox.

You'll start receiving the daily forecast at 6 AM.

×

10-Day Weather Forecast

Almanac

Astronomy

Jul. 24, 2017 Rise Set
Actual Time
Civil Twilight
Nautical Twilight
Astronomical Twilight
Moon
Length of Visible Light
Length of Day
Tomorrow will be .
, % of the Moon is Illuminated

Today's Extremes

State Highs State Lows

Community

WunderPhotos

Category 6

Welcome to Category 6. This is the collective home for Weather Underground's featured writeups by Dr. Jeff Masters (right), Bob Henson (left), Chris Burt, and other regular contributors.

Nearby

Air Quality

  Air Quality AQ Index Pollutant
Not available.

Snow Depth

Station Depth Elevation

Earthquake Activity

City Distance Mag. Time & Date
Minimum magnitude displayed is 2.5.

Coastal Water Temperatures

Place Temperature

Stations

Nearby Weather Stations

Station Location Temp. Windchill Dew Point Humidity Wind Precip. Elev Updated Type
                   

Watches & Warnings

There are currently no watches in effect.